Time;durP1;ratioP1;P1;durP2;ratioP2;P2;SDS_P1;SDS_P2;PMS_P1;PMS_P2;Temp;Humidity;BMP_temperature;BMP_pressure;BME280_temperature;BME280_humidity;BME280_pressure;Samples;Min_cycle;Max_cycle;Signal;HPM_P1;HPM_P2
2022/09/16 00:00:52;;;;;;;6.88;1.40;;;10.00;67.80;;;;;;4141985;28;20555;-84
2022/09/16 00:02:54;;;;;;;7.55;0.95;;;10.00;67.80;;;;;;4108330;28;20046;-83
2022/09/16 00:04:54;;;;;;;8.75;1.15;;;9.90;67.70;;;;;;4141813;28;20036;-83
2022/09/16 00:06:55;;;;;;;11.38;1.35;;;9.90;67.80;;;;;;4108400;28;20380;-83
2022/09/16 00:09:01;;;;;;;14.55;1.52;;;9.90;67.80;;;;;;4110555;28;20077;-83
2022/09/16 00:11:02;;;;;;;11.98;1.23;;;9.90;67.90;;;;;;4111943;28;20030;-83
2022/09/16 00:13:03;;;;;;;12.65;1.50;;;9.90;67.80;;;;;;4105199;28;20035;-83
2022/09/16 00:15:04;;;;;;;6.68;0.90;;;9.90;67.90;;;;;;4100163;28;20095;-82
2022/09/16 00:17:05;;;;;;;8.60;1.40;;;9.80;67.90;;;;;;4138118;28;20032;-84
2022/09/16 00:19:07;;;;;;;12.55;1.50;;;9.80;67.90;;;;;;4092722;28;20126;-82
2022/09/16 00:21:09;;;;;;;11.40;1.00;;;9.80;68.10;;;;;;4106524;28;20046;-82
2022/09/16 00:23:09;;;;;;;8.02;1.00;;;9.90;68.10;;;;;;4119666;28;20117;-82
2022/09/16 00:25:10;;;;;;;7.53;1.17;;;9.80;68.20;;;;;;4102329;28;20034;-82
2022/09/16 00:27:10;;;;;;;9.15;1.40;;;9.70;68.20;;;;;;4105411;28;20039;-82
2022/09/16 00:29:11;;;;;;;10.65;1.27;;;9.80;68.40;;;;;;4104454;28;20042;-82
2022/09/16 00:31:12;;;;;;;5.50;0.77;;;9.70;68.50;;;;;;4089678;28;20054;-83
2022/09/16 00:33:13;;;;;;;9.18;1.45;;;9.70;68.60;;;;;;4104432;28;20114;-82
2022/09/16 00:35:14;;;;;;;6.97;1.20;;;9.70;68.70;;;;;;4105416;28;20154;-81
2022/09/16 00:37:14;;;;;;;8.13;1.23;;;9.70;68.80;;;;;;4105097;28;20525;-83
2022/09/16 00:39:15;;;;;;;12.18;1.58;;;9.70;68.90;;;;;;4111746;28;20031;-83
2022/09/16 00:41:18;;;;;;;15.90;1.20;;;9.70;68.90;;;;;;4108384;28;20063;-82
2022/09/16 00:43:19;;;;;;;13.13;1.48;;;9.80;69.00;;;;;;4121572;28;20126;-82
2022/09/16 00:45:23;;;;;;;9.30;1.35;;;9.80;69.00;;;;;;4111887;28;20030;-82
2022/09/16 00:47:44;;;;;;;7.93;1.10;;;9.70;68.90;;;;;;4110232;28;20643;-81
2022/09/16 00:49:45;;;;;;;8.50;1.67;;;9.70;69.20;;;;;;4104129;28;20025;-83
2022/09/16 00:51:49;;;;;;;9.98;1.42;;;9.80;69.00;;;;;;4108226;28;20034;-83
2022/09/16 00:53:55;;;;;;;17.80;1.67;;;9.70;68.90;;;;;;4107468;28;20019;-82
2022/09/16 00:55:59;;;;;;;10.80;1.13;;;9.70;69.00;;;;;;4110917;28;20093;-82
2022/09/16 00:58:17;;;;;;;11.07;1.38;;;9.80;69.00;;;;;;4105499;28;20077;-83
2022/09/16 01:00:18;;;;;;;9.65;1.27;;;9.70;69.20;;;;;;4116954;28;20068;-83
2022/09/16 01:02:20;;;;;;;19.55;1.70;;;9.70;69.10;;;;;;4116564;28;20848;-83
2022/09/16 01:04:27;;;;;;;7.45;1.27;;;9.70;69.10;;;;;;4123895;28;20031;-83
2022/09/16 01:06:29;;;;;;;10.52;1.90;;;9.70;69.20;;;;;;4113970;28;20031;-83
2022/09/16 01:08:29;;;;;;;11.95;1.58;;;9.70;69.30;;;;;;4105498;28;20027;-83
2022/09/16 01:10:30;;;;;;;12.55;1.52;;;9.70;69.40;;;;;;4127190;28;20037;-83
2022/09/16 01:12:33;;;;;;;11.50;1.20;;;9.70;69.40;;;;;;4107052;28;20037;-85
2022/09/16 01:14:52;;;;;;;;;;;9.70;69.40;;;;;;4091678;28;20067;-84
2022/09/16 01:17:09;;;;;;;7.95;1.48;;;9.80;69.70;;;;;;4110066;28;19953;-83
2022/09/16 01:19:47;;;;;;;8.43;1.42;;;9.80;69.20;;;;;;4121689;28;20522;-81
2022/09/16 01:21:55;;;;;;;9.23;1.77;;;9.80;69.20;;;;;;4107150;28;20121;-82
2022/09/16 01:24:21;;;;;;;8.63;1.33;;;9.90;69.20;;;;;;4105552;28;20041;-83
2022/09/16 01:26:56;;;;;;;14.30;1.20;;;9.80;69.30;;;;;;4122326;28;20037;-83
2022/09/16 01:29:11;;;;;;;5.57;1.00;;;9.80;69.30;;;;;;4090210;28;20028;-82
2022/09/16 01:31:15;;;;;;;13.32;1.30;;;9.90;69.40;;;;;;4127704;28;20070;-82
2022/09/16 01:33:25;;;;;;;9.52;1.10;;;9.90;69.20;;;;;;4109501;28;20039;-83
2022/09/16 01:35:31;;;;;;;10.43;1.40;;;9.80;69.00;;;;;;4111780;28;20034;-83
2022/09/16 01:37:56;;;;;;;8.57;1.20;;;9.90;69.10;;;;;;4101236;28;20043;-83
2022/09/16 01:40:18;;;;;;;9.45;1.17;;;9.80;68.90;;;;;;4110953;28;20069;-83
2022/09/16 01:42:37;;;;;;;8.43;1.30;;;9.80;68.80;;;;;;4105582;28;20129;-82
2022/09/16 01:45:03;;;;;;;10.65;1.08;;;9.80;68.90;;;;;;4109833;28;20031;-83
2022/09/16 01:47:39;;;;;;;8.45;1.27;;;9.80;68.80;;;;;;4138813;28;20053;-83
2022/09/16 01:49:40;;;;;;;12.00;1.40;;;9.80;68.70;;;;;;4108389;28;20130;-83
2022/09/16 01:51:45;;;;;;;17.83;1.55;;;9.80;68.50;;;;;;4108763;28;20034;-83
2022/09/16 01:54:09;;;;;;;15.25;1.45;;;9.80;68.50;;;;;;4110304;28;20030;-83
2022/09/16 01:56:21;;;;;;;11.77;1.20;;;9.70;68.50;;;;;;4122660;28;20102;-83
2022/09/16 01:58:25;;;;;;;13.20;1.65;;;9.70;68.30;;;;;;4122855;28;20042;-84
2022/09/16 02:00:26;;;;;;;9.63;1.60;;;9.80;68.40;;;;;;4112531;28;20054;-84
2022/09/16 02:02:59;;;;;;;5.45;1.05;;;9.70;68.30;;;;;;4112137;28;20400;-83
2022/09/16 02:05:04;;;;;;;15.95;1.38;;;9.70;68.40;;;;;;4124263;28;20046;-83
2022/09/16 02:07:08;;;;;;;14.82;1.67;;;9.60;68.30;;;;;;4125060;28;20064;-83
2022/09/16 02:09:15;;;;;;;14.23;1.30;;;9.70;68.30;;;;;;4139457;28;20034;-83
2022/09/16 02:11:17;;;;;;;12.90;1.67;;;9.60;68.30;;;;;;4142033;28;20026;-84
2022/09/16 02:13:29;;;;;;;11.98;1.70;;;9.60;68.30;;;;;;4108817;28;20614;-83
2022/09/16 02:15:32;;;;;;;15.10;1.35;;;9.60;68.40;;;;;;4108202;28;20042;-84
2022/09/16 02:17:37;;;;;;;4.43;0.95;;;9.60;68.30;;;;;;4115488;28;20074;-84
2022/09/16 02:19:44;;;;;;;17.50;1.25;;;9.60;68.30;;;;;;4138833;28;20025;-83
2022/09/16 02:21:45;;;;;;;16.80;1.42;;;9.60;68.40;;;;;;4127438;28;20022;-82
2022/09/16 02:23:50;;;;;;;18.38;1.67;;;9.60;68.30;;;;;;4141316;28;20025;-83
2022/09/16 02:25:54;;;;;;;11.32;1.65;;;9.60;68.40;;;;;;4104362;28;20023;-84
2022/09/16 02:27:55;;;;;;;;;;;9.70;68.50;;;;;;4105924;28;21175;-84
2022/09/16 02:30:01;;;;;;;11.55;1.25;;;9.60;68.80;;;;;;4109171;28;19918;-84
2022/09/16 02:32:06;;;;;;;9.48;1.75;;;9.60;68.50;;;;;;4108512;28;20028;-84
2022/09/16 02:34:13;;;;;;;10.18;1.27;;;9.60;68.60;;;;;;4127293;28;20022;-85
2022/09/16 02:36:19;;;;;;;9.85;1.45;;;9.70;68.80;;;;;;4111574;28;20034;-81
2022/09/16 02:38:29;;;;;;;8.52;1.08;;;9.70;68.90;;;;;;4107378;28;20407;-82
2022/09/16 02:40:59;;;;;;;11.85;1.67;;;9.60;69.70;;;;;;4120277;28;20030;-81
2022/09/16 02:43:00;;;;;;;12.23;1.30;;;9.60;69.10;;;;;;4120600;28;20873;-82
2022/09/16 02:45:02;;;;;;;15.68;1.85;;;9.70;69.00;;;;;;4108275;28;20061;-83
2022/09/16 02:47:15;;;;;;;9.07;0.95;;;9.70;69.00;;;;;;4107194;28;20061;-83
2022/09/16 02:49:16;;;;;;;8.85;1.83;;;9.70;69.00;;;;;;4121590;28;20494;-82
2022/09/16 02:51:42;;;;;;;8.13;1.20;;;9.70;68.90;;;;;;4111915;28;20130;-83
2022/09/16 02:53:49;;;;;;;5.85;1.15;;;9.70;68.90;;;;;;4111665;28;20022;-82
2022/09/16 02:55:55;;;;;;;11.90;1.67;;;9.80;68.80;;;;;;4141398;28;20021;-82
2022/09/16 02:57:56;;;;;;;13.63;1.60;;;9.70;68.70;;;;;;4108661;28;20046;-83
2022/09/16 02:59:57;;;;;;;16.65;1.10;;;9.90;68.60;;;;;;4111725;28;20042;-81
2022/09/16 03:02:00;;;;;;;10.68;1.38;;;9.70;68.40;;;;;;4106276;28;20090;-83
2022/09/16 03:04:01;;;;;;;10.57;1.20;;;9.70;68.40;;;;;;4108815;28;20026;-83
2022/09/16 03:06:05;;;;;;;16.60;1.35;;;9.70;68.30;;;;;;4107856;28;20062;-82
2022/09/16 03:08:06;;;;;;;;;;;9.70;68.20;;;;;;4109522;28;20027;-82
2022/09/16 03:10:11;;;;;;;6.22;0.90;;;9.70;68.40;;;;;;4111555;28;20004;-82
2022/09/16 03:12:45;;;;;;;18.00;1.38;;;9.80;68.20;;;;;;4129901;28;20114;-83
2022/09/16 03:15:20;;;;;;;9.68;1.30;;;9.70;68.20;;;;;;4145877;28;20030;-82
2022/09/16 03:17:36;;;;;;;12.90;1.10;;;9.70;68.60;;;;;;4114000;28;20031;-84
2022/09/16 03:20:05;;;;;;;17.90;1.58;;;9.70;68.70;;;;;;4146415;28;20510;-83
2022/09/16 03:22:36;;;;;;;11.00;1.20;;;9.70;68.90;;;;;;4113285;28;20458;-82
2022/09/16 03:25:05;;;;;;;12.50;1.33;;;9.70;69.10;;;;;;4107719;28;20035;-83
2022/09/16 03:27:15;;;;;;;14.63;1.45;;;9.60;69.10;;;;;;4103820;28;20173;-83
2022/09/16 03:29:28;;;;;;;15.93;1.48;;;9.70;69.30;;;;;;4103578;28;20050;-80
2022/09/16 03:31:45;;;;;;;12.75;1.35;;;9.60;69.60;;;;;;4107914;28;20533;-82
2022/09/16 03:33:52;;;;;;;16.67;1.42;;;9.70;69.70;;;;;;4108287;28;20973;-82
2022/09/16 03:35:57;;;;;;;8.25;1.55;;;9.70;69.70;;;;;;4105396;28;20030;-83
2022/09/16 03:37:59;;;;;;;9.40;1.20;;;9.70;70.10;;;;;;4102466;28;20039;-83
2022/09/16 03:40:06;;;;;;;9.68;1.48;;;9.80;70.00;;;;;;4108066;28;20026;-83
2022/09/16 03:42:10;;;;;;;12.65;1.90;;;9.70;70.30;;;;;;4106132;28;20073;-82
2022/09/16 03:44:10;;;;;;;11.50;1.20;;;9.70;70.30;;;;;;4109708;28;20131;-83
2022/09/16 03:46:11;;;;;;;12.35;1.50;;;9.70;70.40;;;;;;4104501;28;20042;-82
2022/09/16 03:48:12;;;;;;;7.97;1.25;;;9.70;70.50;;;;;;4107905;28;20039;-82
2022/09/16 03:50:13;;;;;;;8.18;1.05;;;9.70;70.60;;;;;;4139969;28;20034;-82
2022/09/16 03:52:16;;;;;;;11.45;1.75;;;9.80;70.50;;;;;;4108369;28;20038;-82
2022/09/16 03:54:16;;;;;;;12.95;1.40;;;9.90;70.60;;;;;;4116165;28;20105;-82
2022/09/16 03:56:17;;;;;;;9.88;1.02;;;9.90;70.60;;;;;;4110487;28;20167;-83
2022/09/16 03:58:18;;;;;;;9.65;1.42;;;9.80;70.50;;;;;;4112022;28;20540;-81
2022/09/16 04:00:19;;;;;;;13.93;1.70;;;9.80;70.40;;;;;;4106621;28;20463;-84
2022/09/16 04:02:20;;;;;;;10.65;1.40;;;9.80;70.30;;;;;;4110069;28;20066;-82
2022/09/16 04:04:21;;;;;;;15.27;1.77;;;9.80;70.20;;;;;;4147566;28;20045;-81
2022/09/16 04:06:21;;;;;;;12.38;1.52;;;9.80;70.20;;;;;;4140423;28;20192;-82
2022/09/16 04:08:22;;;;;;;9.07;1.50;;;9.80;70.30;;;;;;4109511;28;20026;-83
2022/09/16 04:10:23;;;;;;;12.77;1.30;;;9.80;70.40;;;;;;4104427;28;20031;-83
2022/09/16 04:12:24;;;;;;;9.00;1.50;;;9.90;70.50;;;;;;4122462;28;20102;-83
2022/09/16 04:14:24;;;;;;;9.45;1.08;;;9.90;70.60;;;;;;4100436;28;20599;-82
2022/09/16 04:16:26;;;;;;;10.18;1.55;;;9.80;70.60;;;;;;4106618;28;20407;-80
2022/09/16 04:18:28;;;;;;;9.82;1.55;;;9.80;70.90;;;;;;4110679;28;20058;-82
2022/09/16 04:20:29;;;;;;;9.63;1.67;;;9.80;70.80;;;;;;4114208;28;20030;-81
2022/09/16 04:22:30;;;;;;;12.43;1.42;;;9.90;70.80;;;;;;4106224;28;20023;-82
2022/09/16 04:24:31;;;;;;;8.68;1.15;;;9.90;70.80;;;;;;4112920;28;20030;-82
2022/09/16 04:26:32;;;;;;;10.07;1.17;;;9.90;70.90;;;;;;4106965;28;20078;-82
2022/09/16 04:28:33;;;;;;;8.48;1.15;;;9.90;70.90;;;;;;4117081;28;20857;-82
2022/09/16 04:30:33;;;;;;;8.18;1.17;;;9.90;71.00;;;;;;4119620;28;20038;-82
2022/09/16 04:32:34;;;;;;;8.00;1.20;;;9.90;71.00;;;;;;4104688;28;20101;-80
2022/09/16 04:34:35;;;;;;;11.77;1.17;;;9.90;71.10;;;;;;4101281;28;20038;-82
2022/09/16 04:36:35;;;;;;;7.05;1.00;;;9.90;71.00;;;;;;4140573;28;20029;-81
2022/09/16 04:38:36;;;;;;;8.02;1.15;;;10.00;71.10;;;;;;4100620;28;20027;-82
2022/09/16 04:40:38;;;;;;;7.22;0.75;;;9.90;71.00;;;;;;4109242;28;20732;-82
2022/09/16 04:42:39;;;;;;;10.55;1.20;;;9.90;71.00;;;;;;4105322;28;20027;-83
2022/09/16 04:44:40;;;;;;;11.70;1.92;;;9.90;71.00;;;;;;4103442;28;20603;-82
2022/09/16 04:46:40;;;;;;;3.97;0.88;;;9.90;71.00;;;;;;4137496;28;20024;-82
2022/09/16 04:48:41;;;;;;;5.95;1.00;;;9.90;71.10;;;;;;4114771;28;20027;-82
2022/09/16 04:50:41;;;;;;;6.50;0.80;;;10.00;71.10;;;;;;4150985;28;20125;-82
2022/09/16 04:52:42;;;;;;;14.18;1.17;;;10.00;71.20;;;;;;4124791;28;20109;-82
2022/09/16 04:54:43;;;;;;;9.57;1.17;;;10.00;71.10;;;;;;4117632;28;20090;-83
2022/09/16 04:56:43;;;;;;;7.90;1.00;;;10.00;71.20;;;;;;4147015;28;20413;-83
2022/09/16 04:58:47;;;;;;;6.63;0.93;;;10.00;71.10;;;;;;4120591;28;20081;-83
2022/09/16 05:00:47;;;;;;;15.65;1.13;;;10.00;71.10;;;;;;4131381;28;20153;-83
2022/09/16 05:02:48;;;;;;;8.25;1.17;;;10.00;71.30;;;;;;4118337;28;20022;-83
2022/09/16 05:04:49;;;;;;;9.05;0.70;;;10.00;71.50;;;;;;4113254;28;20041;-84
2022/09/16 05:06:50;;;;;;;12.15;1.35;;;10.20;71.90;;;;;;4115848;28;20058;-83
2022/09/16 05:08:52;;;;;;;5.25;0.90;;;10.10;71.90;;;;;;4116966;28;20054;-84
2022/09/16 05:10:52;;;;;;;9.05;1.08;;;10.10;71.90;;;;;;4150618;28;20062;-83
2022/09/16 05:12:53;;;;;;;10.63;1.17;;;10.10;72.00;;;;;;4116890;28;20098;-83
2022/09/16 05:14:54;;;;;;;3.28;0.68;;;10.10;72.10;;;;;;4110615;28;20052;-82
2022/09/16 05:16:55;;;;;;;14.23;1.15;;;10.10;72.10;;;;;;4120380;28;20027;-84
2022/09/16 05:18:57;;;;;;;10.57;1.17;;;10.10;72.20;;;;;;4115737;28;20042;-83
2022/09/16 05:20:59;;;;;;;10.05;0.90;;;10.10;72.40;;;;;;4108794;28;20035;-83
2022/09/16 05:23:00;;;;;;;6.50;1.15;;;10.10;72.50;;;;;;4112926;28;20498;-83
2022/09/16 05:25:02;;;;;;;7.07;0.82;;;10.10;72.50;;;;;;4115163;28;20034;-83
2022/09/16 05:27:03;;;;;;;7.97;0.95;;;10.10;72.60;;;;;;4112864;28;20042;-83
2022/09/16 05:29:06;;;;;;;20.30;1.77;;;10.10;72.80;;;;;;4114459;28;20027;-82
2022/09/16 05:31:18;;;;;;;7.38;1.10;;;10.10;72.80;;;;;;4116583;28;20093;-83
2022/09/16 05:33:19;;;;;;;10.60;1.50;;;10.10;73.10;;;;;;4113794;28;20048;-83
2022/09/16 05:35:20;;;;;;;12.75;1.33;;;10.10;73.10;;;;;;4125128;28;20027;-81
2022/09/16 05:37:20;;;;;;;10.25;1.17;;;10.10;73.30;;;;;;4111889;28;20081;-82
2022/09/16 05:39:22;;;;;;;9.95;1.40;;;10.10;73.20;;;;;;4117177;28;20079;-82
2022/09/16 05:41:23;;;;;;;11.75;1.33;;;10.10;73.30;;;;;;4146717;28;20037;-83
2022/09/16 05:43:24;;;;;;;11.52;0.85;;;10.20;73.40;;;;;;4117113;28;20027;-82
2022/09/16 05:45:25;;;;;;;9.82;1.20;;;10.10;73.60;;;;;;4115146;28;20399;-83
2022/09/16 05:47:26;;;;;;;13.30;1.50;;;10.20;74.10;;;;;;4116581;28;20088;-83
2022/09/16 05:49:27;;;;;;;10.43;1.27;;;10.10;73.70;;;;;;4117097;28;20050;-83
2022/09/16 05:51:28;;;;;;;11.15;1.10;;;10.10;73.60;;;;;;4116396;28;20101;-83
2022/09/16 05:53:30;;;;;;;6.60;0.82;;;10.10;73.90;;;;;;4114217;28;20099;-82
2022/09/16 05:55:31;;;;;;;10.02;1.02;;;10.20;73.90;;;;;;4106239;28;20043;-83
2022/09/16 05:57:32;;;;;;;14.95;1.33;;;10.10;74.10;;;;;;4113070;28;20043;-82
2022/09/16 05:59:32;;;;;;;12.75;1.38;;;10.10;74.10;;;;;;4112042;28;20086;-84
2022/09/16 06:01:35;;;;;;;8.07;0.85;;;10.20;74.30;;;;;;4130275;28;20034;-84
2022/09/16 06:03:37;;;;;;;9.85;1.17;;;10.10;74.60;;;;;;4112289;28;20124;-84
2022/09/16 06:05:38;;;;;;;8.40;1.17;;;10.20;74.50;;;;;;4113566;28;20027;-84
2022/09/16 06:07:38;;;;;;;12.32;1.17;;;10.20;74.70;;;;;;4109132;28;20073;-84
2022/09/16 06:09:39;;;;;;;6.80;1.00;;;10.20;74.70;;;;;;4106401;28;20038;-84
2022/09/16 06:11:42;;;;;;;13.65;1.33;;;10.30;74.70;;;;;;4111775;28;20035;-84
2022/09/16 06:13:43;;;;;;;;;;;10.20;74.60;;;;;;4142404;28;20038;-84
2022/09/16 06:15:53;;;;;;;10.20;1.08;;;10.20;75.20;;;;;;4112685;28;19925;-84
2022/09/16 06:17:53;;;;;;;8.07;0.85;;;10.20;74.50;;;;;;4124321;28;20034;-84
2022/09/16 06:19:54;;;;;;;8.38;1.17;;;10.20;74.80;;;;;;4107551;28;20070;-85
2022/09/16 06:21:55;;;;;;;7.82;1.10;;;10.20;74.80;;;;;;4112286;28;20030;-84
2022/09/16 06:23:56;;;;;;;8.10;0.93;;;10.20;74.90;;;;;;4112853;28;20113;-84
2022/09/16 06:26:24;;;;;;;7.85;0.88;;;10.20;75.10;;;;;;4126029;28;20030;-83
2022/09/16 06:28:24;;;;;;;13.73;0.70;;;10.20;75.90;;;;;;4106052;28;20217;-85
2022/09/16 06:30:25;;;;;;;7.20;0.95;;;10.20;75.30;;;;;;4119786;28;20030;-84
2022/09/16 06:32:30;;;;;;;11.75;1.20;;;10.20;75.30;;;;;;4110334;28;20034;-84
2022/09/16 06:34:30;;;;;;;12.90;1.35;;;10.30;75.50;;;;;;4106916;28;20035;-81
2022/09/16 06:36:34;;;;;;;9.25;1.13;;;10.30;75.60;;;;;;4108999;28;20029;-83
2022/09/16 06:38:35;;;;;;;7.25;1.10;;;10.20;75.70;;;;;;4110104;28;20054;-84
2022/09/16 06:40:36;;;;;;;7.22;0.93;;;10.20;76.00;;;;;;4106702;28;20026;-83
2022/09/16 06:42:36;;;;;;;11.63;1.20;;;10.30;76.00;;;;;;4123028;28;20787;-83
2022/09/16 06:44:37;;;;;;;8.10;0.80;;;10.30;76.10;;;;;;4109037;28;20031;-83
2022/09/16 06:46:37;;;;;;;9.00;0.80;;;10.20;76.10;;;;;;4109205;28;20034;-83
2022/09/16 06:48:42;;;;;;;9.68;1.27;;;10.30;76.20;;;;;;4112558;28;20073;-82
2022/09/16 06:50:43;;;;;;;10.18;1.40;;;10.30;76.30;;;;;;4114046;28;20573;-82
2022/09/16 06:52:44;;;;;;;9.60;1.20;;;10.40;76.80;;;;;;4111046;28;20174;-83
2022/09/16 06:54:46;;;;;;;6.75;1.00;;;10.40;77.40;;;;;;4108071;28;20030;-83
2022/09/16 06:56:46;;;;;;;9.52;1.02;;;10.40;76.70;;;;;;4126883;28;20100;-84
2022/09/16 06:58:51;;;;;;;9.02;1.13;;;10.60;76.80;;;;;;4109437;28;20094;-84
2022/09/16 07:00:52;;;;;;;18.30;1.73;;;10.60;77.10;;;;;;4123173;28;20038;-83
2022/09/16 07:02:52;;;;;;;9.75;0.90;;;10.60;77.20;;;;;;4108450;28;20038;-83
2022/09/16 07:04:53;;;;;;;6.60;1.00;;;10.70;77.20;;;;;;4108182;28;20484;-84
2022/09/16 07:06:57;;;;;;;5.65;0.60;;;10.60;77.10;;;;;;4107924;28;20037;-83
2022/09/16 07:08:58;;;;;;;;;;;10.70;77.50;;;;;;4107272;28;20039;-83
2022/09/16 07:11:05;;;;;;;5.70;1.02;;;10.80;78.40;;;;;;4118011;28;19917;-83
2022/09/16 07:13:05;;;;;;;14.68;2.03;;;10.80;77.20;;;;;;4121133;28;20034;-83
2022/09/16 07:15:07;;;;;;;8.32;0.85;;;10.80;77.30;;;;;;4103014;28;20053;-83
2022/09/16 07:17:08;;;;;;;7.22;0.85;;;10.90;77.20;;;;;;4124199;28;20124;-83
2022/09/16 07:19:09;;;;;;;13.35;1.70;;;11.00;77.60;;;;;;4110808;28;20057;-83
2022/09/16 07:21:13;;;;;;;8.48;1.35;;;11.00;77.70;;;;;;4139355;28;20189;-83
2022/09/16 07:23:13;;;;;;;6.90;1.17;;;11.00;77.70;;;;;;4108359;28;20044;-83
2022/09/16 07:25:14;;;;;;;12.02;1.30;;;11.10;78.00;;;;;;4107381;28;20102;-83
2022/09/16 07:27:15;;;;;;;7.35;0.98;;;11.20;78.30;;;;;;4113933;28;20113;-83
2022/09/16 07:29:17;;;;;;;11.23;1.40;;;11.30;78.30;;;;;;4107299;28;20460;-83
2022/09/16 07:31:26;;;;;;;9.48;1.00;;;11.30;78.40;;;;;;4125350;28;20521;-83
2022/09/16 07:33:28;;;;;;;12.05;0.98;;;11.40;78.40;;;;;;4107946;28;20022;-83
2022/09/16 07:35:29;;;;;;;9.00;1.30;;;11.40;78.30;;;;;;4089270;28;20039;-83
2022/09/16 07:37:30;;;;;;;15.70;1.65;;;11.50;78.00;;;;;;4113721;28;20495;-84
2022/09/16 07:39:30;;;;;;;8.65;0.90;;;11.60;78.10;;;;;;4109385;28;20312;-84
2022/09/16 07:41:37;;;;;;;8.98;1.45;;;11.70;78.00;;;;;;4111086;28;20092;-84
2022/09/16 07:43:39;;;;;;;8.65;1.20;;;11.60;77.70;;;;;;4110652;28;20031;-83
2022/09/16 07:45:40;;;;;;;8.70;1.30;;;11.60;77.50;;;;;;4111164;28;20031;-83
2022/09/16 07:47:40;;;;;;;11.38;1.30;;;11.60;77.20;;;;;;4107021;28;20051;-84
2022/09/16 07:49:41;;;;;;;8.70;1.23;;;11.70;77.10;;;;;;4110163;28;20023;-85
2022/09/16 07:51:42;;;;;;;9.10;1.20;;;11.70;77.10;;;;;;4111980;28;20118;-85
2022/09/16 07:53:44;;;;;;;8.60;1.08;;;11.70;76.90;;;;;;4126171;28;20692;-85
2022/09/16 07:55:45;;;;;;;4.40;0.70;;;11.90;76.90;;;;;;4136930;28;20029;-85
2022/09/16 07:57:46;;;;;;;10.82;1.25;;;11.90;76.70;;;;;;4107216;28;20349;-84
2022/09/16 07:59:47;;;;;;;8.27;0.93;;;11.80;76.60;;;;;;4109557;28;20027;-85
2022/09/16 08:01:48;;;;;;;5.85;0.90;;;11.80;76.50;;;;;;4105540;28;20023;-85
2022/09/16 08:03:49;;;;;;;8.02;0.80;;;11.80;76.10;;;;;;4109920;28;20412;-85
2022/09/16 08:05:51;;;;;;;8.27;1.15;;;11.80;75.80;;;;;;4107882;28;20033;-84
2022/09/16 08:07:51;;;;;;;7.03;0.90;;;11.90;75.80;;;;;;4137363;28;20028;-85
2022/09/16 08:09:52;;;;;;;8.05;1.00;;;11.90;75.70;;;;;;4124865;28;20027;-84
2022/09/16 08:11:53;;;;;;;6.47;1.13;;;11.80;75.60;;;;;;4109769;28;20041;-84
2022/09/16 08:13:54;;;;;;;6.10;0.75;;;11.90;75.70;;;;;;4105234;28;20503;-85
2022/09/16 08:15:58;;;;;;;10.98;1.02;;;11.80;75.50;;;;;;4107811;28;20023;-84
2022/09/16 08:17:59;;;;;;;10.25;1.35;;;11.80;75.50;;;;;;4120740;28;20422;-85
2022/09/16 08:19:59;;;;;;;9.38;1.33;;;11.80;75.50;;;;;;4107417;28;20031;-82
2022/09/16 08:22:00;;;;;;;12.77;2.00;;;11.80;75.40;;;;;;4116977;28;21251;-84
2022/09/16 08:24:01;;;;;;;11.88;1.35;;;11.90;75.50;;;;;;4104752;28;20441;-84
2022/09/16 08:26:02;;;;;;;5.68;1.00;;;11.80;75.50;;;;;;4112781;28;20049;-84
2022/09/16 08:28:03;;;;;;;14.60;2.00;;;11.70;75.50;;;;;;4112983;28;20039;-84
2022/09/16 08:30:04;;;;;;;11.65;1.60;;;11.80;75.70;;;;;;4098917;28;20023;-84
2022/09/16 08:32:05;;;;;;;12.98;1.80;;;11.70;75.70;;;;;;4137241;28;20018;-84
2022/09/16 08:34:06;;;;;;;12.45;1.83;;;11.70;75.80;;;;;;4108802;28;20221;-84
2022/09/16 08:36:14;;;;;;;11.18;1.25;;;11.70;76.30;;;;;;4108563;28;20027;-84
2022/09/16 08:38:15;;;;;;;9.90;1.30;;;11.80;76.40;;;;;;4106646;28;21083;-84
2022/09/16 08:40:19;;;;;;;15.55;1.58;;;11.70;76.40;;;;;;4139086;28;20038;-85
2022/09/16 08:42:56;;;;;;;13.77;1.90;;;11.80;76.40;;;;;;4138638;28;20034;-83
2022/09/16 08:45:38;;;;;;;8.60;1.20;;;11.80;77.00;;;;;;4126236;28;20029;-85
2022/09/16 08:47:42;;;;;;;8.43;1.30;;;11.80;77.20;;;;;;4106325;28;20386;-83
2022/09/16 08:49:45;;;;;;;9.35;1.45;;;11.80;76.80;;;;;;4122594;28;20465;-84
2022/09/16 08:51:46;;;;;;;11.50;1.40;;;11.90;76.90;;;;;;4109174;28;20490;-84
2022/09/16 08:54:00;;;;;;;10.20;1.42;;;11.90;77.00;;;;;;4110839;28;20041;-85
2022/09/16 08:56:03;;;;;;;;;;;12.00;77.40;;;;;;4116740;28;20430;-84
2022/09/16 08:58:13;;;;;;;12.00;1.17;;;12.00;78.30;;;;;;4121338;28;19913;-84
2022/09/16 09:00:16;;;;;;;12.27;1.60;;;12.00;77.00;;;;;;4122614;28;20511;-85
2022/09/16 09:02:33;;;;;;;14.40;1.58;;;12.00;77.20;;;;;;4112554;28;20031;-85
2022/09/16 09:04:34;;;;;;;11.23;1.38;;;12.10;77.60;;;;;;4100605;28;20570;-84
2022/09/16 09:07:02;;;;;;;10.43;1.60;;;12.10;77.50;;;;;;4109312;28;20035;-84
2022/09/16 09:09:24;;;;;;;9.52;1.50;;;12.10;77.60;;;;;;4105149;28;20372;-85
2022/09/16 09:11:43;;;;;;;9.45;1.45;;;12.10;77.30;;;;;;4106346;28;20050;-83
2022/09/16 09:14:02;;;;;;;14.55;2.20;;;12.20;77.20;;;;;;4103481;28;20403;-84
2022/09/16 09:16:17;;;;;;;8.43;1.58;;;12.20;77.40;;;;;;4105632;28;20383;-84
2022/09/16 09:18:32;;;;;;;12.73;1.25;;;12.20;77.70;;;;;;4135049;28;20750;-84
2022/09/16 09:21:06;;;;;;;12.05;1.70;;;12.30;78.00;;;;;;4131421;28;20029;-84
2022/09/16 09:23:18;;;;;;;13.27;1.77;;;12.30;78.70;;;;;;4105986;28;20102;-85
2022/09/16 09:25:28;;;;;;;11.75;1.35;;;12.40;78.70;;;;;;4103285;28;20526;-83
2022/09/16 09:28:13;;;;;;;13.70;1.70;;;12.50;78.80;;;;;;4108424;28;20022;-84
2022/09/16 09:30:26;;;;;;;11.13;1.27;;;12.50;78.70;;;;;;4071714;28;20039;-84
2022/09/16 09:32:32;;;;;;;17.13;1.77;;;12.60;79.20;;;;;;4100603;28;20479;-87
2022/09/16 09:35:03;;;;;;;10.20;1.33;;;12.70;79.00;;;;;;4107894;28;20027;-85
2022/09/16 09:37:22;;;;;;;10.15;1.42;;;12.80;79.10;;;;;;4104368;28;20031;-84
2022/09/16 09:39:51;;;;;;;8.23;1.00;;;12.90;78.80;;;;;;4124265;28;20137;-84
2022/09/16 09:42:02;;;;;;;15.68;1.58;;;12.90;78.80;;;;;;4135478;28;20525;-85
2022/09/16 09:44:32;;;;;;;10.55;1.17;;;13.00;78.20;;;;;;4108462;28;20035;-83
2022/09/16 09:46:39;;;;;;;10.07;1.23;;;13.10;78.20;;;;;;4109112;28;21727;-85
2022/09/16 09:49:11;;;;;;;7.90;1.10;;;13.20;78.00;;;;;;4110171;28;20031;-86
2022/09/16 09:51:39;;;;;;;9.55;1.10;;;13.30;78.00;;;;;;4101875;28;20527;-85
2022/09/16 09:53:45;;;;;;;11.10;1.25;;;13.30;77.60;;;;;;4106158;28;20843;-85
2022/09/16 09:55:48;;;;;;;10.73;1.15;;;13.40;77.30;;;;;;4120238;28;20034;-85
2022/09/16 09:57:58;;;;;;;6.20;1.10;;;13.50;77.20;;;;;;4095570;28;20612;-84
2022/09/16 10:00:16;;;;;;;4.80;0.85;;;13.50;77.10;;;;;;4112238;28;20555;-83
2022/09/16 10:02:20;;;;;;;6.28;0.85;;;13.60;77.40;;;;;;4107886;28;20027;-83
2022/09/16 10:04:20;;;;;;;6.18;0.90;;;13.70;76.10;;;;;;4109956;28;20491;-84
2022/09/16 10:06:29;;;;;;;5.95;1.10;;;13.70;75.50;;;;;;4108769;28;20035;-84
2022/09/16 10:08:40;;;;;;;9.85;1.05;;;13.70;75.20;;;;;;4120941;28;20030;-83
2022/09/16 10:10:56;;;;;;;9.60;1.17;;;13.70;75.30;;;;;;4107651;28;20121;-82
2022/09/16 10:13:09;;;;;;;7.07;0.85;;;13.70;75.50;;;;;;4123836;28;20027;-83
2022/09/16 10:15:26;;;;;;;8.65;1.00;;;13.80;75.50;;;;;;4106358;28;20034;-84
2022/09/16 10:17:29;;;;;;;7.97;1.02;;;13.80;75.80;;;;;;4140756;28;20033;-84
2022/09/16 10:19:49;;;;;;;9.32;1.35;;;13.80;75.80;;;;;;4106367;28;20160;-83
2022/09/16 10:22:09;;;;;;;15.20;1.40;;;13.90;76.30;;;;;;4138956;28;20038;-84
2022/09/16 10:24:28;;;;;;;7.45;1.45;;;14.00;76.00;;;;;;4105275;28;20673;-85
2022/09/16 10:26:29;;;;;;;8.73;1.00;;;14.00;75.00;;;;;;4123547;28;20026;-83
2022/09/16 10:28:30;;;;;;;6.15;0.90;;;13.90;74.50;;;;;;4136870;28;20033;-84
2022/09/16 10:30:43;;;;;;;8.65;1.40;;;13.90;74.10;;;;;;4109068;28;20093;-83
2022/09/16 10:33:00;;;;;;;9.02;1.50;;;13.90;73.80;;;;;;4106248;28;20014;-84
2022/09/16 10:35:06;;;;;;;9.63;0.98;;;13.90;73.60;;;;;;4113196;28;20022;-84
2022/09/16 10:37:10;;;;;;;8.32;1.17;;;13.90;73.60;;;;;;4109118;28;20031;-84
2022/09/16 10:39:25;;;;;;;7.80;1.30;;;13.90;73.80;;;;;;4103680;28;20467;-84
2022/09/16 10:41:31;;;;;;;7.68;1.17;;;13.90;74.30;;;;;;4100821;28;20034;-84
2022/09/16 10:43:32;;;;;;;8.95;1.20;;;13.80;74.50;;;;;;4140155;28;20057;-85
2022/09/16 10:45:43;;;;;;;12.98;1.45;;;13.90;75.10;;;;;;4102896;28;20027;-84
2022/09/16 10:47:50;;;;;;;11.20;1.50;;;13.90;75.40;;;;;;4121304;28;20073;-84
2022/09/16 10:49:55;;;;;;;12.13;1.35;;;13.90;75.70;;;;;;4123061;28;20030;-84
2022/09/16 10:52:26;;;;;;;6.90;1.10;;;14.00;75.40;;;;;;4124519;28;20045;-84
2022/09/16 10:54:27;;;;;;;8.93;0.95;;;14.00;75.60;;;;;;4106070;28;20088;-84
2022/09/16 10:56:31;;;;;;;8.55;1.40;;;14.00;75.70;;;;;;4105086;28;20038;-85
2022/09/16 10:58:32;;;;;;;7.28;0.90;;;14.10;75.70;;;;;;4102727;28;20030;-83